createdAt,value
2019-01-15T00:00:28.153Z,100.00
2019-01-15T00:02:55.753Z,100.00
2019-01-15T00:05:23.246Z,100.00
2019-01-15T00:07:50.777Z,100.00
2019-01-15T00:10:18.283Z,100.00
2019-01-15T00:12:45.753Z,100.00
2019-01-15T00:15:13.363Z,100.00
2019-01-15T00:17:40.921Z,100.00
2019-01-15T00:20:08.944Z,100.00
2019-01-15T00:22:36.637Z,100.00
2019-01-15T00:25:05.341Z,100.00
2019-01-15T00:27:32.819Z,100.00
2019-01-15T00:30:00.446Z,100.00
2019-01-15T00:32:27.960Z,100.00
2019-01-15T00:34:55.454Z,100.00
2019-01-15T00:37:23.086Z,100.00
2019-01-15T00:39:50.582Z,100.00
2019-01-15T00:42:18.087Z,100.00
2019-01-15T00:44:45.661Z,100.00
2019-01-15T00:47:13.127Z,100.00
2019-01-15T00:49:40.627Z,100.00
2019-01-15T00:52:08.169Z,100.00
2019-01-15T00:54:35.613Z,100.00
2019-01-15T00:57:03.080Z,100.00
2019-01-15T00:59:30.787Z,100.00
2019-01-15T01:01:58.265Z,100.00
2019-01-15T01:04:25.750Z,100.00
2019-01-15T01:06:53.500Z,100.00
2019-01-15T01:09:22.779Z,100.00
2019-01-15T01:11:50.453Z,100.00
2019-01-15T01:14:17.969Z,100.00
2019-01-15T01:16:45.425Z,100.00
2019-01-15T01:19:13.115Z,100.00
2019-01-15T01:21:40.593Z,100.00
2019-01-15T01:24:08.076Z,100.00
2019-01-15T01:26:35.656Z,100.00
2019-01-15T01:29:03.137Z,100.00
2019-01-15T01:31:30.902Z,100.00
2019-01-15T01:33:58.509Z,100.00
2019-01-15T01:36:26.014Z,100.00
2019-01-15T01:38:53.612Z,100.00
2019-01-15T01:41:21.139Z,100.00
2019-01-15T01:43:48.631Z,100.00
2019-01-15T01:46:16.083Z,100.00
2019-01-15T01:48:43.591Z,100.00
2019-01-15T01:51:11.122Z,100.00
2019-01-15T01:53:38.608Z,100.00
2019-01-15T01:56:06.105Z,100.00
2019-01-15T01:58:33.668Z,100.00
2019-01-15T02:01:01.260Z,100.00
2019-01-15T02:03:28.749Z,100.00
2019-01-15T02:05:56.366Z,100.00
2019-01-15T02:08:23.838Z,100.00
2019-01-15T02:10:51.503Z,100.00
2019-01-15T02:13:19.021Z,100.00
2019-01-15T02:15:46.563Z,100.00
2019-01-15T02:18:14.325Z,98.79
2019-01-15T02:20:41.915Z,98.18
2019-01-15T02:23:09.403Z,94.84
2019-01-15T02:25:36.986Z,94.63
2019-01-15T02:28:04.473Z,96.00
2019-01-15T02:30:31.910Z,94.19
2019-01-15T02:32:59.493Z,96.89
2019-01-15T02:35:26.994Z,100.00
2019-01-15T02:37:54.494Z,99.81
2019-01-15T02:40:22.029Z,100.00
2019-01-15T02:42:49.573Z,100.00
2019-01-15T02:45:18.682Z,100.00
2019-01-15T02:47:46.466Z,100.00
2019-01-15T02:50:15.293Z,100.00
2019-01-15T02:52:43.001Z,100.00
2019-01-15T02:55:10.619Z,100.00
2019-01-15T02:57:38.126Z,100.00
2019-01-15T03:00:10.398Z,100.00
2019-01-15T03:02:37.933Z,100.00
2019-01-15T03:05:05.994Z,100.00
2019-01-15T03:07:33.455Z,100.00
2019-01-15T03:10:00.955Z,100.00
2019-01-15T03:12:28.555Z,100.00
2019-01-15T03:14:56.150Z,100.00
2019-01-15T03:17:23.618Z,100.00
2019-01-15T03:19:51.228Z,100.00
2019-01-15T03:22:18.685Z,100.00
2019-01-15T03:24:46.148Z,100.00
2019-01-15T03:27:13.727Z,100.00
2019-01-15T03:29:41.420Z,100.00
2019-01-15T03:32:09.445Z,100.00
2019-01-15T03:34:37.087Z,100.00
2019-01-15T03:37:04.680Z,100.00
2019-01-15T03:39:32.276Z,100.00
2019-01-15T03:41:59.933Z,100.00
2019-01-15T03:44:27.381Z,100.00
2019-01-15T03:46:54.909Z,100.00
2019-01-15T03:49:22.360Z,100.00
2019-01-15T03:51:49.998Z,100.00
2019-01-15T03:54:17.437Z,100.00
2019-01-15T03:56:44.924Z,100.00
2019-01-15T03:59:12.638Z,100.00
2019-01-15T04:01:40.197Z,100.00
2019-01-15T04:04:07.762Z,100.00
2019-01-15T04:06:35.334Z,100.00
2019-01-15T04:09:04.605Z,100.00
2019-01-15T04:11:32.164Z,100.00
2019-01-15T04:13:59.670Z,100.00
2019-01-15T04:16:27.195Z,100.00
2019-01-15T04:18:54.700Z,100.00
2019-01-15T04:21:22.434Z,100.00
2019-01-15T04:23:49.898Z,100.00
2019-01-15T04:26:17.351Z,100.00
2019-01-15T04:28:44.834Z,100.00
2019-01-15T04:31:12.426Z,100.00
2019-01-15T04:33:39.981Z,100.00
2019-01-15T04:36:07.563Z,100.00
2019-01-15T04:38:35.167Z,100.00
2019-01-15T04:41:02.784Z,100.00
2019-01-15T04:43:30.495Z,100.00
2019-01-15T04:45:57.931Z,100.00
2019-01-15T04:48:25.376Z,100.00
2019-01-15T04:50:52.944Z,100.00
2019-01-15T04:53:20.532Z,100.00
2019-01-15T04:55:48.184Z,100.00
2019-01-15T04:58:15.704Z,100.00
2019-01-15T05:00:43.170Z,100.00
2019-01-15T05:03:11.765Z,100.00
2019-01-15T05:05:39.298Z,100.00
2019-01-15T05:08:06.960Z,100.00
2019-01-15T05:10:34.570Z,100.00
2019-01-15T05:13:02.196Z,100.00
2019-01-15T05:15:29.826Z,100.00
2019-01-15T05:17:57.404Z,100.00
2019-01-15T05:20:25.151Z,100.00
2019-01-15T05:22:52.868Z,100.00
2019-01-15T05:25:20.591Z,100.00
2019-01-15T05:27:48.154Z,100.00
2019-01-15T05:30:23.487Z,100.00
2019-01-15T05:32:51.073Z,100.00
2019-01-15T05:35:18.794Z,100.00
2019-01-15T05:37:46.413Z,100.00
2019-01-15T05:40:13.996Z,100.00
2019-01-15T05:42:41.720Z,100.00
2019-01-15T05:45:12.801Z,100.00
2019-01-15T05:47:40.608Z,100.00
2019-01-15T05:50:10.304Z,100.00
2019-01-15T05:52:37.824Z,96.28
2019-01-15T05:55:07.213Z,90.16
2019-01-15T05:57:35.034Z,95.63
2019-01-15T06:00:04.183Z,95.85
2019-01-15T06:02:32.337Z,94.54
2019-01-15T06:05:00.031Z,94.88
2019-01-15T06:07:33.630Z,95.59
2019-01-15T06:09:57.393Z,94.86
2019-01-15T06:12:25.192Z,91.46
2019-01-15T06:14:52.949Z,94.70
2019-01-15T06:17:20.597Z,95.12
2019-01-15T06:19:48.492Z,93.58
2019-01-15T06:22:16.150Z,94.92
2019-01-15T06:24:43.822Z,97.10
2019-01-15T06:27:11.958Z,96.36
2019-01-15T06:29:40.242Z,95.40
2019-01-15T06:32:08.358Z,94.27
2019-01-15T06:34:36.206Z,95.84
2019-01-15T06:37:04.192Z,96.98
2019-01-15T06:39:32.099Z,96.81
2019-01-15T06:41:59.990Z,96.85
2019-01-15T06:44:27.786Z,96.20
2019-01-15T06:46:55.549Z,96.08
2019-01-15T06:49:23.643Z,97.01
2019-01-15T06:51:51.647Z,97.98
2019-01-15T06:54:19.492Z,100.00
2019-01-15T06:56:47.389Z,100.00
2019-01-15T06:59:15.482Z,100.00
2019-01-15T07:01:44.287Z,100.00
2019-01-15T07:04:13.645Z,100.00
2019-01-15T07:06:42.822Z,100.00
2019-01-15T07:09:13.283Z,100.00
2019-01-15T07:11:42.501Z,98.07
2019-01-15T07:14:13.445Z,93.11
2019-01-15T07:16:41.618Z,88.37
2019-01-15T07:19:09.234Z,83.25
2019-01-15T07:21:37.017Z,79.71
2019-01-15T07:24:04.757Z,80.26
2019-01-15T07:26:32.264Z,80.20
2019-01-15T07:28:59.783Z,82.91
2019-01-15T07:31:27.432Z,78.33
2019-01-15T07:33:55.032Z,79.71
2019-01-15T07:36:22.982Z,79.14
2019-01-15T07:38:50.606Z,78.89
2019-01-15T07:41:18.222Z,78.84
2019-01-15T07:43:45.762Z,78.99
2019-01-15T07:46:13.272Z,78.38
2019-01-15T07:48:40.831Z,80.92
2019-01-15T07:51:08.580Z,79.83
2019-01-15T07:53:36.147Z,78.63
2019-01-15T07:56:03.638Z,76.12
2019-01-15T07:58:31.199Z,77.59
2019-01-15T08:00:58.685Z,74.51
2019-01-15T08:03:26.211Z,74.84
2019-01-15T08:13:16.243Z,68.97
2019-01-15T08:15:43.870Z,70.76
2019-01-15T08:18:11.487Z,68.32
2019-01-15T08:20:39.220Z,67.39
2019-01-15T08:23:06.873Z,68.54
2019-01-15T08:25:34.499Z,67.11
2019-01-15T08:28:02.165Z,66.81
2019-01-15T08:30:32.572Z,65.46
2019-01-15T08:33:00.209Z,65.20
2019-01-15T08:35:27.715Z,66.49
2019-01-15T08:37:55.553Z,66.36
2019-01-15T08:40:23.240Z,66.80
2019-01-15T08:42:51.173Z,67.23
2019-01-15T08:45:19.169Z,68.06
2019-01-15T08:47:52.368Z,68.44
2019-01-15T08:50:22.453Z,66.95
2019-01-15T08:52:50.195Z,67.96
2019-01-15T08:55:18.002Z,68.66
2019-01-15T08:57:45.813Z,67.78
2019-01-15T09:00:13.715Z,69.30
2019-01-15T09:02:41.728Z,68.33
2019-01-15T09:05:09.937Z,68.12
2019-01-15T09:07:37.923Z,69.14
2019-01-15T09:10:08.321Z,67.78
2019-01-15T09:12:36.602Z,69.02
2019-01-15T09:15:05.775Z,70.71
2019-01-15T09:17:33.447Z,68.93
2019-01-15T09:20:01.002Z,69.15
2019-01-15T09:22:28.548Z,67.83
2019-01-15T09:24:56.205Z,67.31
2019-01-15T09:27:23.960Z,67.01
2019-01-15T09:29:51.712Z,69.24
2019-01-15T10:07:04.824Z,65.76
2019-01-15T10:09:33.471Z,62.64
2019-01-15T10:12:10.758Z,62.45
2019-01-15T10:14:41.397Z,62.79
2019-01-15T10:17:09.739Z,63.04
2019-01-15T10:19:37.758Z,63.40
2019-01-15T10:22:06.639Z,61.64
2019-01-15T10:24:34.380Z,64.36
2019-01-15T10:27:02.075Z,62.72
2019-01-15T10:29:29.973Z,63.97
2019-01-15T10:32:44.125Z,64.01
2019-01-15T10:35:20.544Z,62.32
2019-01-15T10:37:49.046Z,63.14
2019-01-15T10:40:16.520Z,63.53
2019-01-15T10:42:44.097Z,61.46
2019-01-15T10:45:11.870Z,62.43
2019-01-15T10:47:39.378Z,61.52
2019-01-15T10:50:07.649Z,61.56
2019-01-15T10:52:35.303Z,62.33
2019-01-15T10:55:03.618Z,62.00
2019-01-15T10:57:31.102Z,58.92
2019-01-15T10:59:58.599Z,59.54
2019-01-15T11:02:26.175Z,58.66
2019-01-15T11:04:53.705Z,61.01
2019-01-15T11:07:21.288Z,60.16
2019-01-15T11:09:48.873Z,59.61
2019-01-15T11:12:16.556Z,59.12
2019-01-15T11:14:44.554Z,59.07
2019-01-15T11:17:12.166Z,56.99
2019-01-15T11:19:40.060Z,56.79
2019-01-15T11:22:07.800Z,57.41
2019-01-15T11:24:35.616Z,57.85
2019-01-15T11:27:03.338Z,60.55
2019-01-15T11:29:31.319Z,57.24
2019-01-15T11:31:59.207Z,57.98
2019-01-15T11:34:26.855Z,59.39
2019-01-15T11:36:54.579Z,59.07
2019-01-15T11:39:22.301Z,58.27
2019-01-15T11:41:50.521Z,59.32
2019-01-15T11:44:19.039Z,59.99
2019-01-15T11:46:46.987Z,60.35
2019-01-15T11:49:14.728Z,61.02
2019-01-15T11:51:42.365Z,62.71
2019-01-15T11:54:10.193Z,62.96
2019-01-15T11:56:37.699Z,62.42
2019-01-15T11:59:05.200Z,61.91
2019-01-15T12:01:42.421Z,62.92
2019-01-15T12:04:35.540Z,61.96
2019-01-15T12:07:21.383Z,62.52
2019-01-15T12:10:07.589Z,61.29
2019-01-15T12:12:53.547Z,60.71
2019-01-15T12:15:53.128Z,63.10
2019-01-15T12:18:38.580Z,62.60
2019-01-15T12:21:24.529Z,63.46
2019-01-15T12:24:20.597Z,63.07
2019-01-15T12:27:13.652Z,62.03
2019-01-15T12:29:53.175Z,61.52
2019-01-15T12:32:49.163Z,63.33
2019-01-15T12:35:36.785Z,63.66
2019-01-15T12:38:26.980Z,65.12
2019-01-15T12:41:16.755Z,65.56
2019-01-15T12:43:59.603Z,66.86
2019-01-15T12:46:45.704Z,66.67
2019-01-15T12:49:31.690Z,67.47
2019-01-15T12:52:17.702Z,63.62
2019-01-15T12:55:07.484Z,64.21
2019-01-15T12:57:57.784Z,63.87
2019-01-15T13:00:44.154Z,65.56
2019-01-15T13:03:29.995Z,65.36
2019-01-15T13:06:28.868Z,66.02
2019-01-15T13:09:14.698Z,67.15
2019-01-15T13:11:57.718Z,65.66
2019-01-15T13:14:43.957Z,67.01
2019-01-15T13:17:28.192Z,66.02
2019-01-15T13:20:06.716Z,65.42
2019-01-15T13:22:56.831Z,66.68
2019-01-15T13:25:50.098Z,65.77
2019-01-15T13:28:36.101Z,66.07
2019-01-15T13:31:35.813Z,66.59
2019-01-15T13:34:21.470Z,67.88
2019-01-15T13:37:17.888Z,65.48
2019-01-15T13:40:11.193Z,65.97
2019-01-15T13:43:04.361Z,65.64
2019-01-15T13:45:51.587Z,65.30
2019-01-15T13:48:37.330Z,65.30
2019-01-15T13:51:33.090Z,65.63
2019-01-15T13:54:19.105Z,65.68
2019-01-15T13:57:06.302Z,67.41
2019-01-15T13:59:56.571Z,66.76
2019-01-15T14:02:43.652Z,67.92
2019-01-15T14:05:29.347Z,65.39
2019-01-15T14:08:25.143Z,65.76
2019-01-15T14:11:15.125Z,65.37
2019-01-15T14:14:05.934Z,65.94
2019-01-15T14:16:50.109Z,65.76
2019-01-15T14:19:43.399Z,68.61
2019-01-15T14:22:35.843Z,67.77
2019-01-15T14:25:33.305Z,68.54
2019-01-15T14:28:20.497Z,68.06
2019-01-15T14:31:25.561Z,69.84
2019-01-15T14:34:12.708Z,70.55
2019-01-15T14:36:58.799Z,70.33
2019-01-15T14:39:45.017Z,70.07
2019-01-15T14:42:47.043Z,70.16
2019-01-15T14:45:33.250Z,73.23
2019-01-15T14:48:19.239Z,74.29
2019-01-15T14:51:04.719Z,74.77
2019-01-15T14:53:49.552Z,75.81
2019-01-15T14:56:36.749Z,75.87
2019-01-15T14:59:28.937Z,75.25
2019-01-15T15:02:28.227Z,74.87
2019-01-15T15:05:21.842Z,76.64
2019-01-15T15:08:11.873Z,76.92
2019-01-15T15:10:57.232Z,78.64
2019-01-15T15:13:51.714Z,77.95
2019-01-15T15:16:56.934Z,78.61
2019-01-15T15:19:49.969Z,77.60
2019-01-15T15:22:39.858Z,76.66
2019-01-15T15:25:34.661Z,77.99
2019-01-15T15:28:28.019Z,77.19
2019-01-15T15:31:24.263Z,78.47
2019-01-15T15:34:14.360Z,78.03
2019-01-15T15:37:01.563Z,78.43
2019-01-15T15:39:47.022Z,79.22
2019-01-15T15:42:43.465Z,80.53
2019-01-15T15:45:42.755Z,80.17
2019-01-15T15:48:35.870Z,81.06
2019-01-15T15:51:16.653Z,81.30
2019-01-15T15:54:15.824Z,81.28
2019-01-15T15:57:06.401Z,82.06
2019-01-15T15:59:58.120Z,80.70
2019-01-15T16:02:50.530Z,81.75
2019-01-15T16:05:50.122Z,81.88
2019-01-15T16:08:45.678Z,81.82
2019-01-15T16:11:31.257Z,81.77
2019-01-15T16:14:16.808Z,82.14
2019-01-15T16:16:57.093Z,81.89
2019-01-15T16:19:43.400Z,81.45
2019-01-15T16:22:40.016Z,80.97
2019-01-15T16:25:28.492Z,80.69
2019-01-15T16:28:24.990Z,80.59
2019-01-15T16:31:07.362Z,80.50
2019-01-15T16:33:54.130Z,81.00
2019-01-15T16:36:40.570Z,82.63
2019-01-15T16:39:27.944Z,81.69
2019-01-15T16:42:24.381Z,81.31
2019-01-15T16:45:11.743Z,82.81
2019-01-15T16:47:54.782Z,82.53
2019-01-15T16:50:41.012Z,83.36
2019-01-15T16:53:28.812Z,82.79
2019-01-15T16:56:14.932Z,84.16
2019-01-15T16:58:54.726Z,85.69
2019-01-15T17:01:41.020Z,85.72
2019-01-15T17:04:17.187Z,86.51
2019-01-15T17:07:19.809Z,85.34
2019-01-15T17:10:10.069Z,85.83
2019-01-15T17:12:57.526Z,87.67
2019-01-15T17:15:37.417Z,90.17
2019-01-15T17:18:27.072Z,91.42
2019-01-15T17:21:12.790Z,92.08
2019-01-15T17:24:15.518Z,92.78
2019-01-15T17:26:52.091Z,93.52
2019-01-15T17:29:39.561Z,93.73
2019-01-15T17:32:32.969Z,93.73
2019-01-15T17:35:20.659Z,93.16
2019-01-15T17:38:08.036Z,95.93
2019-01-15T17:40:53.938Z,95.66
2019-01-15T17:43:41.685Z,95.06
2019-01-15T17:46:30.248Z,95.10
2019-01-15T17:49:17.647Z,96.23
2019-01-15T17:52:05.401Z,95.79
2019-01-15T17:55:11.052Z,95.88
2019-01-15T17:57:57.018Z,96.14
2019-01-15T18:00:43.088Z,95.60
2019-01-15T18:03:30.440Z,95.23
2019-01-15T18:06:16.402Z,93.83
2019-01-15T18:09:06.566Z,92.92
2019-01-15T18:11:52.513Z,92.35
2019-01-15T18:14:52.011Z,91.49
2019-01-15T18:17:51.246Z,90.14
2019-01-15T18:20:26.376Z,87.61
2019-01-15T18:23:13.692Z,89.06
2019-01-15T18:25:53.120Z,88.90
2019-01-15T18:28:31.246Z,88.94
2019-01-15T18:31:16.829Z,88.78
2019-01-15T18:33:57.571Z,87.19
2019-01-15T18:36:44.954Z,85.47
2019-01-15T18:39:41.191Z,86.41
2019-01-15T18:42:25.343Z,87.52
2019-01-15T18:45:04.829Z,88.78
2019-01-15T18:47:50.979Z,88.75
2019-01-15T18:50:36.955Z,87.09
2019-01-15T18:53:27.274Z,87.92
2019-01-15T18:56:13.863Z,88.05
2019-01-15T18:58:59.941Z,88.38
2019-01-15T19:01:49.695Z,88.38
2019-01-15T19:04:39.927Z,88.61
2019-01-15T19:07:27.456Z,89.69
2019-01-15T19:10:20.995Z,90.35
2019-01-15T19:13:07.232Z,91.11
2019-01-15T19:15:53.453Z,91.09
2019-01-15T19:18:40.078Z,90.52
2019-01-15T19:21:27.433Z,89.62
2019-01-15T19:24:13.605Z,89.02
2019-01-15T19:27:03.298Z,89.16
2019-01-15T19:30:05.777Z,89.73
2019-01-15T19:32:58.948Z,89.92
2019-01-15T19:35:58.642Z,89.72
2019-01-15T19:38:46.285Z,89.50
2019-01-15T19:41:33.412Z,90.17
2019-01-15T19:44:19.422Z,90.87
2019-01-15T19:47:10.616Z,90.03
2019-01-15T19:49:57.085Z,88.16
2019-01-15T19:52:44.646Z,88.44
2019-01-15T19:55:50.364Z,87.58
2019-01-15T19:58:43.411Z,86.45
2019-01-15T20:01:29.496Z,86.75
2019-01-15T20:04:22.859Z,86.75
2019-01-15T20:07:25.403Z,87.28
2019-01-15T20:10:24.930Z,88.31
2019-01-15T20:13:30.576Z,88.91
2019-01-15T20:16:30.039Z,89.73
2019-01-15T20:19:18.684Z,91.03
2019-01-15T20:22:04.699Z,91.65
2019-01-15T20:24:50.903Z,92.17
2019-01-15T20:27:33.494Z,92.50
2019-01-15T20:30:19.388Z,92.24
2019-01-15T20:33:18.730Z,93.44
2019-01-15T20:36:15.199Z,94.41
2019-01-15T20:38:54.957Z,94.44
2019-01-15T20:41:47.847Z,95.13
2019-01-15T20:44:37.969Z,96.42
2019-01-15T20:47:40.598Z,96.92
2019-01-15T20:50:27.615Z,97.50
2019-01-15T20:53:11.749Z,98.25
2019-01-15T20:56:05.310Z,98.55
2019-01-15T20:58:55.163Z,98.88
2019-01-15T21:01:42.511Z,99.84
2019-01-15T21:04:29.855Z,99.88
2019-01-15T21:07:15.738Z,100.00
2019-01-15T21:10:01.361Z,100.00
2019-01-15T21:12:49.626Z,100.00
2019-01-15T21:15:40.013Z,100.00
2019-01-15T21:18:30.706Z,100.00
2019-01-15T21:21:29.944Z,100.00
2019-01-15T21:24:25.717Z,100.00
2019-01-15T21:27:05.314Z,100.00
2019-01-15T21:29:52.404Z,100.00
2019-01-15T21:32:38.129Z,100.00
2019-01-15T21:35:37.588Z,100.00
2019-01-15T21:38:33.679Z,100.00
2019-01-15T21:41:19.375Z,100.00
2019-01-15T21:44:04.881Z,100.00
2019-01-15T21:46:50.398Z,100.00
2019-01-15T21:49:43.340Z,100.00
2019-01-15T21:52:47.839Z,100.00
2019-01-15T21:55:40.802Z,100.00
2019-01-15T21:58:21.343Z,100.00
2019-01-15T22:01:07.142Z,100.00
2019-01-15T22:03:52.380Z,100.00
2019-01-15T22:06:54.348Z,100.00
2019-01-15T22:09:50.651Z,100.00
2019-01-15T22:12:40.290Z,100.00
2019-01-15T22:15:37.296Z,100.00
2019-01-15T22:18:26.931Z,100.00
2019-01-15T22:21:14.013Z,100.00
2019-01-15T22:23:53.593Z,99.87
2019-01-15T22:26:39.514Z,100.00
2019-01-15T22:29:29.693Z,100.00
2019-01-15T22:32:22.613Z,100.00
2019-01-15T22:35:09.772Z,100.00
2019-01-15T22:38:02.616Z,99.27
2019-01-15T22:40:42.292Z,100.00
2019-01-15T22:43:36.319Z,100.00
2019-01-15T22:46:35.564Z,100.00
2019-01-15T22:49:40.937Z,99.89
2019-01-15T22:52:26.703Z,100.00
2019-01-15T22:55:05.402Z,100.00
2019-01-15T22:57:52.459Z,99.79
2019-01-15T23:00:57.578Z,100.00
2019-01-15T23:03:43.257Z,100.00
2019-01-15T23:06:28.717Z,100.00
2019-01-15T23:09:18.422Z,100.00
2019-01-15T23:12:08.003Z,100.00
2019-01-15T23:14:45.406Z,100.00
2019-01-15T23:17:31.657Z,100.00
2019-01-15T23:20:17.219Z,100.00
2019-01-15T23:23:02.589Z,97.87
2019-01-15T23:26:01.416Z,96.91
2019-01-15T23:28:55.559Z,96.36
2019-01-15T23:31:46.711Z,96.22
2019-01-15T23:34:28.807Z,98.47
2019-01-15T23:37:18.643Z,98.61
2019-01-15T23:40:05.757Z,99.30
2019-01-15T23:42:50.023Z,99.92
2019-01-15T23:45:37.070Z,100.00
2019-01-15T23:48:30.445Z,100.00
2019-01-15T23:51:22.320Z,100.00
2019-01-15T23:54:07.909Z,100.00
2019-01-15T23:57:06.738Z,100.00
